createdAt,value
2016-02-09T00:00:37.911Z,0
2016-02-09T00:01:37.897Z,0
2016-02-09T00:02:37.901Z,0
2016-02-09T00:03:37.888Z,0
2016-02-09T00:04:37.875Z,0
2016-02-09T00:05:37.894Z,0
2016-02-09T00:06:37.881Z,0
2016-02-09T00:07:37.868Z,0
2016-02-09T00:08:37.887Z,0
2016-02-09T00:09:37.702Z,0
2016-02-09T00:10:37.860Z,0
2016-02-09T00:11:37.863Z,0
2016-02-09T00:12:37.851Z,0
2016-02-09T00:13:37.854Z,0
2016-02-09T00:14:37.870Z,0
2016-02-09T00:15:37.890Z,0
2016-02-09T00:16:37.845Z,0
2016-02-09T00:17:37.864Z,0
2016-02-09T00:18:37.867Z,0
2016-02-09T00:19:37.838Z,0
2016-02-09T00:20:37.888Z,0
2016-02-09T00:21:39.469Z,0
2016-02-09T00:22:37.815Z,0
2016-02-09T00:23:37.810Z,0
2016-02-09T00:24:37.845Z,0
2016-02-09T00:25:37.816Z,0
2016-02-09T00:26:37.818Z,0
2016-02-09T00:27:37.824Z,0
2016-02-09T00:28:37.687Z,0
2016-02-09T00:29:37.814Z,0
2016-02-09T00:30:37.801Z,0
2016-02-09T00:31:37.820Z,0
2016-02-09T00:32:37.790Z,0
2016-02-09T00:33:37.809Z,0
2016-02-09T00:34:37.795Z,0
2016-02-09T00:35:37.815Z,0
2016-02-09T00:36:37.786Z,0
2016-02-09T00:37:37.804Z,0
2016-02-09T00:38:37.869Z,0
2016-02-09T00:39:37.778Z,0
2016-02-09T00:40:37.781Z,0
2016-02-09T00:41:37.802Z,0
2016-02-09T00:42:37.774Z,0
2016-02-09T00:43:37.777Z,0
2016-02-09T00:44:37.779Z,0
2016-02-09T00:45:37.751Z,0
2016-02-09T00:46:37.754Z,0
2016-02-09T00:47:37.772Z,0
2016-02-09T00:48:37.745Z,0
2016-02-09T00:49:37.763Z,0
2016-02-09T00:50:37.751Z,0
2016-02-09T00:51:37.768Z,0
2016-02-09T00:52:37.731Z,0
2016-02-09T00:53:37.733Z,0
2016-02-09T00:54:37.581Z,0
2016-02-09T00:55:37.724Z,0
2016-02-09T00:56:37.742Z,0
2016-02-09T00:57:37.776Z,0
2016-02-09T00:58:37.716Z,0
2016-02-09T00:59:37.719Z,0
2016-02-09T01:00:37.737Z,0
2016-02-09T01:01:37.724Z,0
2016-02-09T01:02:37.710Z,0
2016-02-09T01:03:37.730Z,0
2016-02-09T01:04:37.703Z,0
2016-02-09T01:05:37.705Z,0
2016-02-09T01:06:37.722Z,0
2016-02-09T01:07:37.695Z,0
2016-02-09T01:08:37.697Z,0
2016-02-09T01:09:37.700Z,0
2016-02-09T01:10:37.719Z,0
2016-02-09T01:11:37.689Z,0
2016-02-09T01:12:37.677Z,0
2016-02-09T01:13:37.694Z,0
2016-02-09T01:14:37.683Z,0
2016-02-09T01:15:37.685Z,0
2016-02-09T01:16:37.703Z,0
2016-02-09T01:17:37.676Z,0
2016-02-09T01:18:37.662Z,0
2016-02-09T01:19:37.681Z,0
2016-02-09T01:20:37.652Z,0
2016-02-09T01:21:37.655Z,0
2016-02-09T01:22:37.658Z,0
2016-02-09T01:23:37.644Z,0
2016-02-09T01:24:37.647Z,0
2016-02-09T01:25:37.635Z,0
2016-02-09T01:26:37.637Z,0
2016-02-09T01:27:37.672Z,0
2016-02-09T01:28:37.627Z,0
2016-02-09T01:29:37.629Z,0
2016-02-09T01:30:37.634Z,0
2016-02-09T01:31:37.621Z,0
2016-02-09T01:32:37.609Z,0
2016-02-09T01:33:37.626Z,0
2016-02-09T01:34:37.614Z,0
2016-02-09T01:35:37.617Z,0
2016-02-09T01:36:37.667Z,0
2016-02-09T01:37:37.606Z,0
2016-02-09T01:38:37.593Z,0
2016-02-09T01:39:37.613Z,0
2016-02-09T01:40:37.443Z,0
2016-02-09T01:41:37.602Z,0
2016-02-09T01:42:37.604Z,0
2016-02-09T01:43:37.593Z,0
2016-02-09T01:44:37.580Z,0
2016-02-09T01:45:37.599Z,0
2016-02-09T01:46:37.617Z,0
2016-02-09T01:47:37.574Z,0
2016-02-09T01:48:37.577Z,0
2016-02-09T01:49:37.595Z,0
2016-02-09T01:50:37.566Z,0
2016-02-09T01:51:37.568Z,0
2016-02-09T01:52:37.574Z,0
2016-02-09T01:53:37.562Z,0
2016-02-09T01:54:37.549Z,0
2016-02-09T01:55:37.557Z,0
2016-02-09T01:56:37.575Z,0
2016-02-09T01:57:37.546Z,0
2016-02-09T01:58:37.565Z,0
2016-02-09T01:59:37.567Z,0
2016-02-09T02:00:37.541Z,0
2016-02-09T02:01:37.528Z,0
2016-02-09T02:02:37.577Z,0
2016-02-09T02:03:37.533Z,0
2016-02-09T02:04:37.536Z,0
2016-02-09T02:05:37.539Z,0
2016-02-09T02:06:37.557Z,0
2016-02-09T02:07:37.513Z,0
2016-02-09T02:08:37.516Z,0
2016-02-09T02:09:37.534Z,0
2016-02-09T02:10:37.506Z,0
2016-02-09T02:11:37.509Z,0
2016-02-09T02:12:37.526Z,0
2016-02-09T02:13:37.501Z,0
2016-02-09T02:14:37.518Z,0
2016-02-09T02:15:37.522Z,0
2016-02-09T02:16:37.492Z,0
2016-02-09T02:17:37.480Z,0
2016-02-09T02:18:37.513Z,0
2016-02-09T02:19:37.473Z,0
2016-02-09T02:20:37.476Z,0
2016-02-09T02:21:37.479Z,0
2016-02-09T02:22:37.466Z,0
2016-02-09T02:23:37.469Z,0
2016-02-09T02:24:37.499Z,0
2016-02-09T02:25:37.470Z,0
2016-02-09T02:26:37.458Z,0
2016-02-09T02:27:37.494Z,0
2016-02-09T02:28:37.449Z,0
2016-02-09T02:29:37.468Z,0
2016-02-09T02:30:37.471Z,0
2016-02-09T02:31:37.443Z,0
2016-02-09T02:32:37.446Z,0
2016-02-09T02:33:37.464Z,0
2016-02-09T02:34:37.435Z,0
2016-02-09T02:35:37.421Z,0
2016-02-09T02:36:37.456Z,0
2016-02-09T02:37:37.427Z,0
2016-02-09T02:38:37.429Z,0
2016-02-09T02:39:37.432Z,0
2016-02-09T02:40:37.435Z,0
2016-02-09T02:41:37.424Z,0
2016-02-09T02:42:37.442Z,0
2016-02-09T02:43:37.414Z,0
2016-02-09T02:44:37.432Z,0
2016-02-09T02:45:37.450Z,0
2016-02-09T02:46:37.391Z,0
2016-02-09T02:47:37.394Z,0
2016-02-09T02:48:37.411Z,0
2016-02-09T02:49:37.260Z,0
2016-02-09T02:50:37.388Z,0
2016-02-09T02:51:37.390Z,0
2016-02-09T02:52:37.239Z,0
2016-02-09T02:53:37.382Z,0
2016-02-09T02:54:37.369Z,0
2016-02-09T02:55:37.373Z,0
2016-02-09T02:56:37.390Z,0
2016-02-09T02:57:37.378Z,0
2016-02-09T02:58:37.364Z,0
2016-02-09T02:59:37.383Z,0
2016-02-09T03:00:37.354Z,0
2016-02-09T03:01:37.357Z,0
2016-02-09T03:02:37.359Z,0
2016-02-09T03:03:37.349Z,0
2016-02-09T03:04:37.336Z,0
2016-02-09T03:05:37.339Z,0
2016-02-09T03:06:37.326Z,0
2016-02-09T03:07:37.329Z,0
2016-02-09T03:08:37.362Z,0
2016-02-09T03:09:37.334Z,0
2016-02-09T03:10:37.321Z,0
2016-02-09T03:11:37.340Z,0
2016-02-09T03:12:37.327Z,0
2016-02-09T03:13:37.314Z,0
2016-02-09T03:14:37.333Z,0
2016-02-09T03:15:37.335Z,0
2016-02-09T03:16:37.308Z,0
2016-02-09T03:17:37.311Z,0
2016-02-09T03:18:37.345Z,0
2016-02-09T03:19:37.300Z,0
2016-02-09T03:20:37.288Z,0
2016-02-09T03:21:37.307Z,0
2016-02-09T03:22:37.281Z,0
2016-02-09T03:23:37.284Z,0
2016-02-09T03:24:37.287Z,0
2016-02-09T03:25:37.274Z,0
2016-02-09T03:26:37.277Z,0
2016-02-09T03:27:37.296Z,0
2016-02-09T03:28:37.283Z,0
2016-02-09T03:29:37.269Z,0
2016-02-09T03:30:37.272Z,0
2016-02-09T03:31:37.306Z,0
2016-02-09T03:32:37.262Z,0
2016-02-09T03:33:37.265Z,0
2016-02-09T03:34:37.283Z,0
2016-02-09T03:35:37.239Z,0
2016-02-09T03:36:37.242Z,0
2016-02-09T03:37:37.276Z,0
2016-02-09T03:38:37.248Z,0
2016-02-09T03:39:37.251Z,0
2016-02-09T03:40:37.286Z,0
2016-02-09T03:41:37.241Z,0
2016-02-09T03:42:37.244Z,0
2016-02-09T03:43:37.217Z,0
2016-02-09T03:44:37.265Z,0
2016-02-09T03:45:37.222Z,0
2016-02-09T03:46:37.228Z,0
2016-02-09T03:47:37.215Z,0
2016-02-09T03:48:37.296Z,0
2016-02-09T03:49:37.204Z,0
2016-02-09T03:50:37.195Z,0
2016-02-09T03:51:37.229Z,0
2016-02-09T03:52:37.201Z,0
2016-02-09T03:53:37.187Z,0
2016-02-09T03:54:37.206Z,0
2016-02-09T03:55:37.192Z,0
2016-02-09T03:56:37.195Z,0
2016-02-09T03:57:37.198Z,0
2016-02-09T03:58:37.184Z,0
2016-02-09T03:59:37.172Z,0
2016-02-09T04:00:37.195Z,0
2016-02-09T04:01:37.182Z,0
2016-02-09T04:02:37.169Z,0
2016-02-09T04:03:37.187Z,0
2016-02-09T04:04:37.174Z,0
2016-02-09T04:05:37.160Z,0
2016-02-09T04:06:37.163Z,0
2016-02-09T04:07:37.151Z,0
2016-02-09T04:08:37.156Z,0
2016-02-09T04:09:37.159Z,0
2016-02-09T04:10:37.145Z,0
2016-02-09T04:11:37.148Z,0
2016-02-09T04:12:37.166Z,0
2016-02-09T04:13:37.153Z,0
2016-02-09T04:14:37.144Z,0
2016-02-09T04:15:37.146Z,0
2016-02-09T04:16:37.165Z,0
2016-02-09T04:17:37.121Z,0
2016-02-09T04:18:37.124Z,0
2016-02-09T04:19:37.142Z,0
2016-02-09T04:20:37.114Z,0
2016-02-09T04:21:36.961Z,0
2016-02-09T04:22:37.152Z,0
2016-02-09T04:23:37.122Z,0
2016-02-09T04:24:37.110Z,0
2016-02-09T04:25:37.113Z,0
2016-02-09T04:26:37.115Z,0
2016-02-09T04:27:37.086Z,0
2016-02-09T04:28:37.089Z,0
2016-02-09T04:29:37.107Z,0
2016-02-09T04:30:37.079Z,0
2016-02-09T04:31:37.081Z,0
2016-02-09T04:32:37.100Z,0
2016-02-09T04:33:37.087Z,0
2016-02-09T04:34:37.074Z,0
2016-02-09T04:35:37.062Z,0
2016-02-09T04:36:37.080Z,0
2016-02-09T04:37:37.052Z,0
2016-02-09T04:38:37.055Z,0
2016-02-09T04:39:37.073Z,0
2016-02-09T04:40:37.044Z,0
2016-02-09T04:41:37.047Z,0
2016-02-09T04:42:37.034Z,0
2016-02-09T04:43:37.037Z,0
2016-02-09T04:44:37.055Z,0
2016-02-09T04:45:37.043Z,0
2016-02-09T04:46:37.030Z,0
2016-02-09T04:47:37.033Z,0
2016-02-09T04:48:37.035Z,0
2016-02-09T04:49:37.023Z,0
2016-02-09T04:50:37.042Z,0
2016-02-09T04:51:37.047Z,0
2016-02-09T04:52:37.019Z,0
2016-02-09T04:53:37.022Z,0
2016-02-09T04:54:37.055Z,0
2016-02-09T04:55:37.011Z,0
2016-02-09T04:56:37.014Z,0
2016-02-09T04:57:37.049Z,0
2016-02-09T04:58:36.989Z,0
2016-02-09T04:59:36.976Z,0
2016-02-09T05:00:37.010Z,0
2016-02-09T05:01:36.997Z,0
2016-02-09T05:02:36.984Z,0
2016-02-09T05:03:36.987Z,0
2016-02-09T05:04:36.976Z,0
2016-02-09T05:05:36.962Z,0
2016-02-09T05:06:36.981Z,0
2016-02-09T05:07:36.983Z,0
2016-02-09T05:08:36.954Z,0
2016-02-09T05:09:36.973Z,0
2016-02-09T05:10:36.976Z,0
2016-02-09T05:11:36.948Z,0
2016-02-09T05:12:36.998Z,0
2016-02-09T05:13:36.968Z,0
2016-02-09T05:14:36.957Z,0
2016-02-09T05:15:36.943Z,0
2016-02-09T05:16:36.976Z,0
2016-02-09T05:17:36.932Z,0
2016-02-09T05:18:36.935Z,0
2016-02-09T05:19:36.798Z,0
2016-02-09T05:20:36.972Z,0
2016-02-09T05:21:36.928Z,0
2016-02-09T05:22:36.921Z,0
2016-02-09T05:23:36.941Z,0
2016-02-09T05:24:36.911Z,0
2016-02-09T05:25:36.914Z,0
2016-02-09T05:26:36.901Z,0
2016-02-09T05:27:36.904Z,0
2016-02-09T05:28:36.907Z,0
2016-02-09T05:29:36.941Z,0
2016-02-09T05:30:36.909Z,0
2016-02-09T05:31:36.896Z,0
2016-02-09T05:32:36.898Z,0
2016-02-09T05:33:36.873Z,0
2016-02-09T05:34:36.875Z,0
2016-02-09T05:35:36.878Z,0
2016-02-09T05:36:36.880Z,0
2016-02-09T05:37:36.867Z,0
2016-02-09T05:38:36.870Z,0
2016-02-09T05:39:36.888Z,0
2016-02-09T05:40:36.891Z,0
2016-02-09T05:41:36.863Z,0
2016-02-09T05:42:36.913Z,0
2016-02-09T05:43:36.852Z,0
2016-02-09T05:44:36.855Z,0
2016-02-09T05:45:36.873Z,0
2016-02-09T05:46:36.831Z,0
2016-02-09T05:47:36.850Z,0
2016-02-09T05:48:36.852Z,0
2016-02-09T05:49:36.839Z,0
2016-02-09T05:50:36.826Z,0
2016-02-09T05:51:36.828Z,0
2016-02-09T05:52:36.863Z,0
2016-02-09T05:53:36.836Z,0
2016-02-09T05:54:36.823Z,0
2016-02-09T05:55:36.841Z,0
2016-02-09T05:56:36.813Z,0
2016-02-09T05:57:36.816Z,0
2016-02-09T05:58:36.803Z,0
2016-02-09T05:59:36.821Z,0
2016-02-09T06:00:36.809Z,0
2016-02-09T06:01:36.812Z,0
2016-02-09T06:02:36.799Z,0
2016-02-09T06:03:36.833Z,0
2016-02-09T06:04:36.851Z,0
2016-02-09T06:05:36.792Z,0
2016-02-09T06:06:36.794Z,0
2016-02-09T06:07:36.817Z,0
2016-02-09T06:08:36.789Z,0
2016-02-09T06:09:36.777Z,0
2016-02-09T06:10:36.795Z,0
2016-02-09T06:11:36.767Z,0
2016-02-09T06:12:36.753Z,0
2016-02-09T06:13:36.788Z,0
2016-02-09T06:14:36.760Z,0
2016-02-09T06:15:36.763Z,0
2016-02-09T06:16:36.766Z,0
2016-02-09T06:17:36.790Z,0
2016-02-09T06:18:36.746Z,0
2016-02-09T06:19:36.750Z,0
2016-02-09T06:20:36.752Z,0
2016-02-09T06:21:36.730Z,0
2016-02-09T06:22:36.749Z,0
2016-02-09T06:23:36.768Z,0
2016-02-09T06:24:36.724Z,0
2016-02-09T06:25:36.741Z,0
2016-02-09T06:26:37.312Z,0
2016-02-09T06:27:36.767Z,0
2016-02-09T06:28:36.739Z,0
2016-02-09T06:29:36.726Z,0
2016-02-09T06:30:36.762Z,0
2016-02-09T06:31:36.717Z,0
2016-02-09T06:32:36.705Z,0
2016-02-09T06:33:36.942Z,0
2016-02-09T06:34:36.726Z,0
2016-02-09T06:35:36.697Z,0
2016-02-09T06:36:36.717Z,0
2016-02-09T06:37:36.704Z,0
2016-02-09T06:38:36.706Z,0
2016-02-09T06:39:36.708Z,0
2016-02-09T06:40:36.681Z,0
2016-02-09T06:41:36.683Z,0
2016-02-09T06:42:36.701Z,0
2016-02-09T06:43:36.673Z,0
2016-02-09T06:44:36.692Z,0
2016-02-09T06:45:36.695Z,0
2016-02-09T06:46:36.682Z,0
2016-02-09T06:47:36.669Z,0
2016-02-09T06:48:36.703Z,0
2016-02-09T06:49:36.506Z,0
2016-02-09T06:50:36.648Z,0
2016-02-09T06:51:36.683Z,0
2016-02-09T06:52:36.503Z,0
2016-02-09T06:53:36.646Z,0
2016-02-09T06:54:36.664Z,0
2016-02-09T06:55:36.667Z,5
2016-02-09T06:56:36.655Z,5
2016-02-09T06:57:36.642Z,5
2016-02-09T06:58:36.647Z,5
2016-02-09T06:59:36.633Z,5
2016-02-09T07:00:36.637Z,5
2016-02-09T07:01:36.624Z,5
2016-02-09T07:02:36.627Z,5
2016-02-09T07:03:36.629Z,5
2016-02-09T07:04:36.715Z,5
2016-02-09T07:05:36.640Z,5
2016-02-09T07:06:36.627Z,5
2016-02-09T07:07:36.600Z,5
2016-02-09T07:08:36.633Z,5
2016-02-09T07:09:36.605Z,5
2016-02-09T07:10:36.607Z,5
2016-02-09T07:11:36.598Z,5
2016-02-09T07:12:36.615Z,5
2016-02-09T07:13:36.588Z,5
2016-02-09T07:14:36.606Z,5
2016-02-09T07:15:36.577Z,5
2016-02-09T07:16:36.596Z,5
2016-02-09T07:17:36.614Z,5
2016-02-09T07:18:36.586Z,5
2016-02-09T07:19:36.573Z,5
2016-02-09T07:20:36.575Z,5
2016-02-09T07:21:36.578Z,5
2016-02-09T07:22:36.581Z,5
2016-02-09T07:23:36.567Z,5
2016-02-09T07:24:36.560Z,5
2016-02-09T07:25:36.563Z,5
2016-02-09T07:26:36.596Z,5
2016-02-09T07:27:36.568Z,5
2016-02-09T07:28:36.539Z,10
2016-02-09T07:29:36.401Z,10
2016-02-09T07:30:36.544Z,10
2016-02-09T07:31:36.547Z,10
2016-02-09T07:32:36.549Z,10
2016-02-09T07:33:36.569Z,10
2016-02-09T07:34:36.525Z,5
2016-02-09T07:35:36.528Z,5
2016-02-09T07:36:36.546Z,5
2016-02-09T07:37:36.533Z,10
2016-02-09T07:38:36.520Z,10
2016-02-09T07:39:36.539Z,10
2016-02-09T07:40:36.542Z,10
2016-02-09T07:41:36.498Z,10
2016-02-09T07:42:36.517Z,10
2016-02-09T07:43:36.567Z,10
2016-02-09T07:44:36.492Z,10
2016-02-09T07:45:36.509Z,10
2016-02-09T07:46:36.512Z,10
2016-02-09T07:47:36.502Z,15
2016-02-09T07:48:36.504Z,15
2016-02-09T07:49:36.508Z,15
2016-02-09T07:50:36.479Z,15
2016-02-09T07:51:36.497Z,15
2016-02-09T07:52:36.500Z,15
2016-02-09T07:53:36.458Z,15
2016-02-09T07:54:36.460Z,15
2016-02-09T07:55:36.480Z,15
2016-02-09T07:56:36.468Z,15
2016-02-09T07:57:36.454Z,15
2016-02-09T07:58:36.474Z,15
2016-02-09T07:59:36.460Z,15
2016-02-09T08:00:36.447Z,15
2016-02-09T08:01:36.453Z,15
2016-02-09T08:02:36.439Z,15
2016-02-09T08:03:36.443Z,15
2016-02-09T08:04:36.445Z,15
2016-02-09T08:05:36.464Z,15
2016-02-09T08:06:36.435Z,15
2016-02-09T08:07:36.453Z,15
2016-02-09T08:08:36.456Z,15
2016-02-09T08:09:36.445Z,20
2016-02-09T08:10:36.416Z,20
2016-02-09T08:11:36.419Z,20
2016-02-09T08:12:36.453Z,20
2016-02-09T08:13:36.425Z,25
2016-02-09T08:14:36.400Z,25
2016-02-09T08:15:36.450Z,25
2016-02-09T08:16:36.405Z,30
2016-02-09T08:17:36.413Z,30
2016-02-09T08:18:36.399Z,30
2016-02-09T08:19:36.417Z,25
2016-02-09T08:20:36.389Z,25
2016-02-09T08:21:36.379Z,20
2016-02-09T08:22:36.413Z,20
2016-02-09T08:23:36.387Z,15
2016-02-09T08:24:36.389Z,15
2016-02-09T08:25:36.391Z,15
2016-02-09T08:26:36.379Z,10
2016-02-09T08:27:36.365Z,10
2016-02-09T08:28:36.400Z,10
2016-02-09T08:29:36.371Z,10
2016-02-09T08:30:36.373Z,10
2016-02-09T08:31:36.443Z,15
2016-02-09T08:32:36.399Z,15
2016-02-09T08:33:36.355Z,20
2016-02-09T08:34:36.373Z,20
2016-02-09T08:35:36.375Z,20
2016-02-09T08:36:36.347Z,20
2016-02-09T08:37:36.334Z,15
2016-02-09T08:38:36.336Z,15
2016-02-09T08:39:36.355Z,10
2016-02-09T08:40:36.340Z,10
2016-02-09T08:41:36.330Z,10
2016-02-09T08:42:36.320Z,15
2016-02-09T08:43:36.340Z,20
2016-02-09T08:44:36.270Z,20
2016-02-09T08:45:36.261Z,20
2016-02-09T08:46:36.275Z,20
2016-02-09T08:47:36.243Z,20
2016-02-09T08:48:36.240Z,15
2016-02-09T08:49:36.239Z,15
2016-02-09T08:50:36.270Z,15
2016-02-09T08:51:36.241Z,15
2016-02-09T08:52:36.209Z,15
2016-02-09T08:53:36.212Z,20
2016-02-09T08:54:36.213Z,20
2016-02-09T08:55:36.215Z,20
2016-02-09T08:56:36.217Z,20
2016-02-09T08:57:36.219Z,15
2016-02-09T08:58:36.195Z,15
2016-02-09T08:59:36.212Z,10
2016-02-09T09:00:36.215Z,10
2016-02-09T09:01:36.201Z,15
2016-02-09T09:02:36.172Z,20
2016-02-09T09:03:36.206Z,20
2016-02-09T09:04:36.177Z,25
2016-02-09T09:05:36.179Z,25
2016-02-09T09:06:36.197Z,25
2016-02-09T09:07:36.185Z,25
2016-02-09T09:08:36.172Z,25
2016-02-09T09:09:36.160Z,20
2016-02-09T09:10:36.178Z,15
2016-02-09T09:11:36.150Z,15
2016-02-09T09:12:36.152Z,20
2016-02-09T09:13:36.186Z,25
2016-02-09T09:14:36.190Z,25
2016-02-09T09:15:36.132Z,25
2016-02-09T09:16:36.149Z,25
2016-02-09T09:17:36.137Z,20
2016-02-09T09:18:36.130Z,20
2016-02-09T09:19:36.148Z,15
2016-02-09T09:20:36.169Z,15
2016-02-09T09:21:36.171Z,15
2016-02-09T09:22:36.128Z,15
2016-02-09T09:23:36.146Z,15
2016-02-09T09:24:36.132Z,15
2016-02-09T09:25:36.136Z,20
2016-02-09T09:26:35.982Z,15
2016-02-09T09:27:36.141Z,20
2016-02-09T09:28:36.098Z,20
2016-02-09T09:29:36.101Z,20
2016-02-09T09:30:36.120Z,20
2016-02-09T09:31:36.106Z,20
2016-02-09T09:32:36.109Z,20
2016-02-09T09:33:36.112Z,20
2016-02-09T09:34:36.100Z,20
2016-02-09T09:35:36.119Z,20
2016-02-09T09:36:36.121Z,20
2016-02-09T09:37:36.092Z,20
2016-02-09T09:38:36.096Z,20
2016-02-09T09:39:36.098Z,20
2016-02-09T09:40:36.131Z,25
2016-02-09T09:41:36.072Z,25
2016-02-09T09:42:36.091Z,25
2016-02-09T09:43:36.094Z,25
2016-02-09T09:44:36.081Z,25
2016-02-09T09:45:36.068Z,25
2016-02-09T09:46:36.055Z,30
2016-02-09T09:47:36.089Z,30
2016-02-09T09:48:36.071Z,30
2016-02-09T09:49:36.073Z,30
2016-02-09T09:50:36.091Z,30
2016-02-09T09:51:36.063Z,30
2016-02-09T09:52:36.050Z,30
2016-02-09T09:53:36.069Z,30
2016-02-09T09:54:36.039Z,30
2016-02-09T09:55:36.042Z,30
2016-02-09T09:56:36.046Z,30
2016-02-09T09:57:36.048Z,30
2016-02-09T09:58:36.037Z,30
2016-02-09T09:59:36.039Z,30
2016-02-09T10:00:36.041Z,30
2016-02-09T10:01:36.028Z,30
2016-02-09T10:02:36.047Z,30
2016-02-09T10:03:36.033Z,30
2016-02-09T10:04:35.880Z,30
2016-02-09T10:05:36.023Z,30
2016-02-09T10:06:36.026Z,30
2016-02-09T10:07:36.044Z,30
2016-02-09T10:08:36.000Z,30
2016-02-09T10:09:36.019Z,25
2016-02-09T10:10:36.021Z,25
2016-02-09T10:11:36.008Z,25
2016-02-09T10:12:35.996Z,25
2016-02-09T10:13:35.998Z,30
2016-02-09T10:14:36.016Z,30
2016-02-09T10:15:35.987Z,35
2016-02-09T10:16:35.991Z,35
2016-02-09T10:17:35.993Z,35
2016-02-09T10:18:35.980Z,35
2016-02-09T10:19:35.987Z,35
2016-02-09T10:20:35.990Z,35
2016-02-09T10:21:35.977Z,35
2016-02-09T10:22:35.963Z,35
2016-02-09T10:23:35.982Z,35
2016-02-09T10:24:35.969Z,35
2016-02-09T10:25:35.988Z,35
2016-02-09T10:26:35.974Z,35
2016-02-09T10:27:35.946Z,35
2016-02-09T10:28:35.949Z,35
2016-02-09T10:29:35.986Z,40
2016-02-09T10:30:35.942Z,40
2016-02-09T10:31:35.961Z,40
2016-02-09T10:32:35.964Z,45
2016-02-09T10:33:35.950Z,40
2016-02-09T10:34:35.953Z,40
2016-02-09T10:35:35.956Z,40
2016-02-09T10:36:35.958Z,35
2016-02-09T10:37:35.945Z,35
2016-02-09T10:38:35.933Z,35
2016-02-09T10:39:35.936Z,40
2016-02-09T10:40:35.938Z,40
2016-02-09T10:41:35.940Z,40
2016-02-09T10:42:35.928Z,45
2016-02-09T10:43:35.930Z,45
2016-02-09T10:44:35.917Z,45
2016-02-09T10:45:35.923Z,40
2016-02-09T10:46:35.925Z,50
2016-02-09T10:47:35.928Z,50
2016-02-09T10:48:35.915Z,55
2016-02-09T10:49:35.901Z,60
2016-02-09T10:50:35.904Z,65
2016-02-09T10:51:35.730Z,65
2016-02-09T10:52:35.904Z,75
2016-02-09T10:53:35.892Z,70
2016-02-09T10:54:35.895Z,70
2016-02-09T10:55:35.897Z,70
2016-02-09T10:56:35.900Z,75
2016-02-09T10:57:35.871Z,70
2016-02-09T10:58:35.889Z,70
2016-02-09T10:59:35.876Z,75
2016-02-09T11:00:35.879Z,70
2016-02-09T11:01:35.898Z,75
2016-02-09T11:02:35.714Z,65
2016-02-09T11:03:35.857Z,60
2016-02-09T11:04:35.735Z,60
2016-02-09T11:05:35.862Z,60
2016-02-09T11:06:35.865Z,60
2016-02-09T11:07:35.884Z,55
2016-02-09T11:08:35.856Z,55
2016-02-09T11:09:35.859Z,55
2016-02-09T11:10:35.865Z,55
2016-02-09T11:11:35.852Z,60
2016-02-09T11:12:35.839Z,65
2016-02-09T11:13:35.858Z,65
2016-02-09T11:14:35.844Z,70
2016-02-09T11:15:35.833Z,70
2016-02-09T11:16:35.866Z,60
2016-02-09T11:17:35.837Z,65
2016-02-09T11:18:35.828Z,70
2016-02-09T11:19:35.846Z,70
2016-02-09T11:20:35.833Z,85
2016-02-09T11:21:35.822Z,95
2016-02-09T11:22:35.856Z,90
2016-02-09T11:23:35.828Z,85
2016-02-09T11:24:35.815Z,85
2016-02-09T11:25:35.865Z,75
2016-02-09T11:26:35.821Z,70
2016-02-09T11:27:35.808Z,70
2016-02-09T11:28:35.810Z,70
2016-02-09T11:29:35.815Z,75
2016-02-09T11:30:35.801Z,75
2016-02-09T11:31:35.805Z,75
2016-02-09T11:32:35.807Z,75
2016-02-09T11:33:35.795Z,75
2016-02-09T11:34:35.812Z,75
2016-02-09T11:35:35.815Z,75
2016-02-09T11:36:35.787Z,75
2016-02-09T11:37:35.807Z,85
2016-02-09T11:38:35.966Z,85
2016-02-09T11:39:35.813Z,90
2016-02-09T11:40:35.800Z,90
2016-02-09T11:41:35.802Z,90
2016-02-09T11:42:35.821Z,95
2016-02-09T11:43:35.777Z,95
2016-02-09T11:44:35.780Z,90
2016-02-09T11:45:35.797Z,85
2016-02-09T11:46:35.788Z,85
2016-02-09T11:47:35.774Z,85
2016-02-09T11:48:35.793Z,75
2016-02-09T11:49:35.796Z,70
2016-02-09T11:50:35.798Z,65
2016-02-09T11:51:35.760Z,55
2016-02-09T11:52:35.778Z,50
2016-02-09T11:53:35.766Z,45
2016-02-09T11:54:35.772Z,35
2016-02-09T11:55:35.775Z,35
2016-02-09T11:56:35.778Z,30
2016-02-09T11:57:35.764Z,25
2016-02-09T11:58:35.751Z,25
2016-02-09T11:59:35.770Z,25
2016-02-09T12:00:35.742Z,25
2016-02-09T12:01:35.744Z,20
2016-02-09T12:02:35.781Z,20
2016-02-09T12:03:35.753Z,20
2016-02-09T12:04:35.744Z,25
2016-02-09T12:05:35.763Z,25
2016-02-09T12:06:35.751Z,30
2016-02-09T12:07:35.723Z,30
2016-02-09T12:08:35.756Z,30
2016-02-09T12:09:35.728Z,35
2016-02-09T12:10:35.734Z,35
2016-02-09T12:11:35.751Z,40
2016-02-09T12:12:35.754Z,40
2016-02-09T12:13:35.742Z,30
2016-02-09T12:14:35.712Z,30
2016-02-09T12:15:35.715Z,25
2016-02-09T12:16:35.718Z,25
2016-02-09T12:17:35.862Z,30
2016-02-09T12:18:35.708Z,35
2016-02-09T12:19:35.726Z,35
2016-02-09T12:20:35.563Z,35
2016-02-09T12:21:35.722Z,35
2016-02-09T12:22:35.710Z,30
2016-02-09T12:23:36.040Z,35
2016-02-09T12:24:35.746Z,35
2016-02-09T12:25:35.686Z,40
2016-02-09T12:26:35.720Z,45
2016-02-09T12:27:35.710Z,50
2016-02-09T12:28:35.712Z,45
2016-02-09T12:29:35.684Z,45
2016-02-09T12:30:35.706Z,45
2016-02-09T12:31:35.677Z,45
2016-02-09T12:32:35.524Z,40
2016-02-09T12:33:35.684Z,40
2016-02-09T12:34:35.671Z,40
2016-02-09T12:35:35.688Z,45
2016-02-09T12:36:35.677Z,45
2016-02-09T12:37:35.679Z,45
2016-02-09T12:38:35.682Z,45
2016-02-09T12:39:35.668Z,40
2016-02-09T12:40:35.671Z,40
2016-02-09T12:41:35.690Z,40
2016-02-09T12:42:35.676Z,35
2016-02-09T12:43:35.663Z,35
2016-02-09T12:44:35.666Z,35
2016-02-09T12:45:35.669Z,30
2016-02-09T12:46:35.657Z,30
2016-02-09T12:47:35.502Z,30
2016-02-09T12:48:35.662Z,25
2016-02-09T12:49:35.649Z,25
2016-02-09T12:50:35.653Z,25
2016-02-09T12:51:35.672Z,20
2016-02-09T12:52:35.642Z,20
2016-02-09T12:53:35.645Z,20
2016-02-09T12:54:35.634Z,15
2016-02-09T12:55:35.637Z,15
2016-02-09T12:56:35.639Z,10
2016-02-09T12:57:35.595Z,10
2016-02-09T12:58:35.628Z,10
2016-02-09T12:59:35.647Z,10
2016-02-09T13:00:35.634Z,10
2016-02-09T13:01:35.621Z,15
2016-02-09T13:02:35.639Z,15
2016-02-09T13:03:35.627Z,10
2016-02-09T13:04:35.615Z,15
2016-02-09T13:05:35.632Z,15
2016-02-09T13:06:35.604Z,10
2016-02-09T13:07:35.623Z,10
2016-02-09T13:08:35.625Z,10
2016-02-09T13:09:35.612Z,10
2016-02-09T13:10:35.615Z,10
2016-02-09T13:11:35.648Z,15
2016-02-09T13:12:35.605Z,15
2016-02-09T13:13:35.608Z,20
2016-02-09T13:14:35.594Z,20
2016-02-09T13:15:35.613Z,15
2016-02-09T13:16:35.616Z,15
2016-02-09T13:17:35.603Z,15
2016-02-09T13:18:35.575Z,15
2016-02-09T13:19:35.589Z,15
2016-02-09T13:20:35.608Z,15
2016-02-09T13:21:35.611Z,15
2016-02-09T13:22:35.597Z,15
2016-02-09T13:23:35.569Z,15
2016-02-09T13:24:35.571Z,15
2016-02-09T13:25:35.574Z,15
2016-02-09T13:26:35.562Z,10
2016-02-09T13:27:35.579Z,10
2016-02-09T13:28:35.568Z,10
2016-02-09T13:29:35.570Z,15
2016-02-09T13:30:35.587Z,10
2016-02-09T13:31:35.559Z,15
2016-02-09T13:32:35.562Z,15
2016-02-09T13:33:35.581Z,10
2016-02-09T13:34:35.568Z,10
2016-02-09T13:35:35.554Z,10
2016-02-09T13:36:35.621Z,10
2016-02-09T13:37:35.561Z,10
2016-02-09T13:38:35.551Z,10
2016-02-09T13:39:35.568Z,10
2016-02-09T13:40:35.540Z,10
2016-02-09T13:41:35.542Z,10
2016-02-09T13:42:35.545Z,10
2016-02-09T13:43:35.548Z,10
2016-02-09T13:44:35.535Z,10
2016-02-09T13:45:35.553Z,10
2016-02-09T13:46:35.525Z,15
2016-02-09T13:47:35.527Z,10
2016-02-09T13:48:35.565Z,10
2016-02-09T13:49:35.521Z,10
2016-02-09T13:50:35.523Z,10
2016-02-09T13:51:35.542Z,10
2016-02-09T13:52:35.529Z,10
2016-02-09T13:53:35.531Z,10
2016-02-09T13:54:35.534Z,10
2016-02-09T13:55:35.506Z,15
2016-02-09T13:56:35.524Z,15
2016-02-09T13:57:35.511Z,15
2016-02-09T13:58:35.498Z,15
2016-02-09T13:59:35.500Z,15
2016-02-09T14:00:35.520Z,15
2016-02-09T14:01:35.507Z,15
2016-02-09T14:02:35.479Z,20
2016-02-09T14:03:35.529Z,20
2016-02-09T14:04:35.501Z,20
2016-02-09T14:05:35.488Z,25
2016-02-09T14:06:35.522Z,25
2016-02-09T14:07:35.508Z,30
2016-02-09T14:08:35.510Z,25
2016-02-09T14:09:35.483Z,25
2016-02-09T14:10:35.471Z,20
2016-02-09T14:11:35.473Z,20
2016-02-09T14:12:35.506Z,15
2016-02-09T14:13:35.478Z,15
2016-02-09T14:14:35.466Z,15
2016-02-09T14:15:35.484Z,15
2016-02-09T14:16:35.471Z,15
2016-02-09T14:17:35.473Z,15
2016-02-09T14:18:35.476Z,10
2016-02-09T14:19:35.464Z,10
2016-02-09T14:20:35.452Z,10
2016-02-09T14:21:35.470Z,15
2016-02-09T14:22:35.473Z,15
2016-02-09T14:23:35.460Z,15
2016-02-09T14:24:35.463Z,15
2016-02-09T14:25:35.450Z,15
2016-02-09T14:26:35.437Z,15
2016-02-09T14:27:35.439Z,15
2016-02-09T14:28:35.459Z,15
2016-02-09T14:29:35.431Z,15
2016-02-09T14:30:35.433Z,20
2016-02-09T14:31:35.451Z,20